createdAt,value
2023-05-13T00:00:39.004Z,95.07
2023-05-13T00:03:08.592Z,94.98
2023-05-13T00:05:36.869Z,94.92
2023-05-13T00:08:07.233Z,94.36
2023-05-13T00:10:35.668Z,95.78
2023-05-13T00:13:03.906Z,95.72
2023-05-13T00:15:32.286Z,95.50
2023-05-13T00:18:00.601Z,96.23
2023-05-13T00:20:30.229Z,96.32
2023-05-13T00:22:58.406Z,96.60
2023-05-13T00:25:26.783Z,96.47
2023-05-13T00:27:55.369Z,95.89
2023-05-13T00:30:23.876Z,96.49
2023-05-13T00:32:52.340Z,96.43
2023-05-13T00:35:20.696Z,96.17
2023-05-13T00:37:50.286Z,96.86
2023-05-13T00:40:22.636Z,96.16
2023-05-13T00:42:51.664Z,96.73
2023-05-13T00:45:20.067Z,96.56
2023-05-13T00:47:49.955Z,96.55
2023-05-13T00:50:18.767Z,96.78
2023-05-13T00:52:51.817Z,96.31
2023-05-13T00:55:20.066Z,95.99
2023-05-13T00:57:48.324Z,96.33
2023-05-13T01:00:17.428Z,96.22
2023-05-13T01:02:55.866Z,96.60
2023-05-13T01:05:32.915Z,96.30
2023-05-13T01:08:12.986Z,96.42
2023-05-13T01:10:46.553Z,96.39
2023-05-13T01:13:18.780Z,96.02
2023-05-13T01:15:52.742Z,96.28
2023-05-13T01:18:26.443Z,97.30
2023-05-13T01:20:55.364Z,96.89
2023-05-13T01:23:25.360Z,97.62
2023-05-13T01:25:53.605Z,97.34
2023-05-13T01:28:22.565Z,97.90
2023-05-13T01:30:56.213Z,97.77
2023-05-13T01:33:26.347Z,98.38
2023-05-13T01:35:54.848Z,98.12
2023-05-13T01:38:25.947Z,97.96
2023-05-13T01:40:57.998Z,98.86
2023-05-13T01:43:26.924Z,99.11
2023-05-13T01:45:55.890Z,98.16
2023-05-13T01:48:24.432Z,98.88
2023-05-13T01:50:53.364Z,98.94
2023-05-13T01:53:21.610Z,98.35
2023-05-13T01:55:55.103Z,99.27
2023-05-13T01:58:23.397Z,98.80
2023-05-13T02:00:51.825Z,99.22
2023-05-13T02:03:20.729Z,99.25
2023-05-13T02:05:49.131Z,98.83
2023-05-13T02:08:17.372Z,98.78
2023-05-13T02:10:45.609Z,98.54
2023-05-13T02:13:15.157Z,99.09
2023-05-13T02:15:44.050Z,98.99
2023-05-13T02:18:12.312Z,98.55
2023-05-13T02:20:40.630Z,98.78
2023-05-13T02:23:09.365Z,98.77
2023-05-13T02:25:37.821Z,98.53
2023-05-13T02:28:06.285Z,99.12
2023-05-13T02:30:41.697Z,98.96
2023-05-13T02:33:10.366Z,98.78
2023-05-13T02:35:38.600Z,98.65
2023-05-13T02:38:06.830Z,97.51
2023-05-13T02:40:36.204Z,97.63
2023-05-13T02:43:04.798Z,97.92
2023-05-13T02:45:49.427Z,97.57
2023-05-13T02:48:17.975Z,97.94
2023-05-13T02:50:46.512Z,97.27
2023-05-13T02:53:14.810Z,97.42
2023-05-13T02:55:48.874Z,97.84
2023-05-13T02:58:19.338Z,97.82
2023-05-13T03:00:50.781Z,97.92
2023-05-13T03:03:19.256Z,96.27
2023-05-13T03:05:47.508Z,96.21
2023-05-13T03:08:16.044Z,95.87
2023-05-13T03:10:44.276Z,96.34
2023-05-13T03:13:13.909Z,96.28
2023-05-13T03:15:44.227Z,96.57
2023-05-13T03:18:14.420Z,96.71
2023-05-13T03:20:42.804Z,96.35
2023-05-13T03:23:11.032Z,95.88
2023-05-13T03:25:39.702Z,96.30
2023-05-13T03:28:10.391Z,96.28
2023-05-13T03:30:44.098Z,96.28
2023-05-13T03:33:18.242Z,96.43
2023-05-13T03:35:48.537Z,97.28
2023-05-13T03:38:19.037Z,96.97
2023-05-13T03:40:50.100Z,96.34
2023-05-13T03:43:19.042Z,96.42
2023-05-13T03:45:52.936Z,96.56
2023-05-13T03:48:24.863Z,95.57
2023-05-13T03:50:54.789Z,96.29
2023-05-13T03:53:23.480Z,95.61
2023-05-13T03:55:51.795Z,96.39
2023-05-13T03:58:21.717Z,96.86
2023-05-13T04:00:50.293Z,96.58
2023-05-13T04:03:19.332Z,96.74
2023-05-13T04:05:49.659Z,96.97
2023-05-13T04:08:17.858Z,96.97
2023-05-13T04:10:46.248Z,97.04
2023-05-13T04:13:14.732Z,96.96
2023-05-13T04:15:44.681Z,97.54
2023-05-13T04:18:12.953Z,96.96
2023-05-13T04:20:41.843Z,96.77
2023-05-13T04:23:11.731Z,97.23
2023-05-13T04:25:42.006Z,96.68
2023-05-13T04:28:10.235Z,96.87
2023-05-13T04:30:44.578Z,97.11
2023-05-13T04:33:13.569Z,96.85
2023-05-13T04:35:45.119Z,97.64
2023-05-13T04:38:15.532Z,97.04
2023-05-13T04:40:45.053Z,97.20
2023-05-13T04:43:16.128Z,96.86
2023-05-13T04:45:49.788Z,97.12
2023-05-13T04:48:18.248Z,97.83
2023-05-13T04:50:47.563Z,98.05
2023-05-13T04:53:18.602Z,97.99
2023-05-13T04:55:49.319Z,98.60
2023-05-13T04:58:17.702Z,98.44
2023-05-13T05:00:46.270Z,98.43
2023-05-13T05:03:15.115Z,97.54
2023-05-13T05:05:45.704Z,97.68
2023-05-13T05:08:15.771Z,97.56
2023-05-13T05:10:46.086Z,97.94
2023-05-13T05:13:15.508Z,97.70
2023-05-13T05:15:45.177Z,98.13
2023-05-13T05:18:14.165Z,97.57
2023-05-13T05:20:44.390Z,99.31
2023-05-13T05:23:17.089Z,98.41
2023-05-13T05:25:48.551Z,99.04
2023-05-13T05:28:18.706Z,98.65
2023-05-13T05:30:48.017Z,98.83
2023-05-13T05:33:21.834Z,99.24
2023-05-13T05:35:51.231Z,99.10
2023-05-13T05:38:24.107Z,98.77
2023-05-13T05:40:54.417Z,97.87
2023-05-13T05:43:22.678Z,98.00
2023-05-13T05:45:53.481Z,97.93
2023-05-13T05:48:22.596Z,98.21
2023-05-13T05:50:50.935Z,97.88
2023-05-13T05:53:26.557Z,97.82
2023-05-13T05:55:56.686Z,97.80
2023-05-13T05:58:27.074Z,98.07
2023-05-13T06:00:56.996Z,98.55
2023-05-13T06:03:25.867Z,98.18
2023-05-13T06:05:54.417Z,98.28
2023-05-13T06:08:29.799Z,98.67
2023-05-13T06:11:00.280Z,97.71
2023-05-13T06:13:28.681Z,97.94
2023-05-13T06:15:57.030Z,96.68
2023-05-13T06:18:25.306Z,97.40
2023-05-13T06:20:53.550Z,98.63
2023-05-13T06:23:21.775Z,97.98
2023-05-13T06:25:50.121Z,97.45
2023-05-13T06:28:19.649Z,97.48
2023-05-13T06:30:47.859Z,97.87
2023-05-13T06:33:16.129Z,97.32
2023-05-13T06:35:48.070Z,98.12
2023-05-13T06:38:18.250Z,96.35
2023-05-13T06:40:47.654Z,97.24
2023-05-13T06:43:18.182Z,98.27
2023-05-13T06:45:50.800Z,97.14
2023-05-13T06:48:19.072Z,98.54
2023-05-13T06:50:47.534Z,97.88
2023-05-13T06:53:15.751Z,97.84
2023-05-13T06:55:43.947Z,98.33
2023-05-13T06:58:12.480Z,98.17
2023-05-13T07:00:41.963Z,98.03
2023-05-13T07:03:11.984Z,98.16
2023-05-13T07:05:40.179Z,97.65
2023-05-13T07:08:08.721Z,97.89
2023-05-13T07:10:37.861Z,97.55
2023-05-13T07:13:06.351Z,97.56
2023-05-13T07:15:34.520Z,96.14
2023-05-13T07:18:02.836Z,97.56
2023-05-13T07:20:32.518Z,97.63
2023-05-13T07:23:00.786Z,96.25
2023-05-13T07:25:28.952Z,96.88
2023-05-13T07:27:57.178Z,97.67
2023-05-13T07:30:25.921Z,96.78
2023-05-13T07:32:54.290Z,97.22
2023-05-13T07:35:23.285Z,97.70
2023-05-13T07:37:53.086Z,97.05
2023-05-13T07:40:21.633Z,96.46
2023-05-13T07:42:50.433Z,97.46
2023-05-13T07:45:18.684Z,97.25
2023-05-13T07:47:46.972Z,97.92
2023-05-13T07:50:15.224Z,97.94
2023-05-13T07:52:43.574Z,97.48
2023-05-13T07:55:13.131Z,98.21
2023-05-13T07:57:41.295Z,97.32
2023-05-13T08:00:11.189Z,97.07
2023-05-13T08:02:44.911Z,96.34
2023-05-13T08:05:14.597Z,96.44
2023-05-13T08:07:43.147Z,95.56
2023-05-13T08:10:12.838Z,95.00
2023-05-13T08:12:41.331Z,94.98
2023-05-13T08:15:11.991Z,94.93
2023-05-13T08:17:40.232Z,95.60
2023-05-13T08:20:11.283Z,95.74
2023-05-13T08:22:39.464Z,95.61
2023-05-13T08:25:08.204Z,94.91
2023-05-13T08:27:38.159Z,93.91
2023-05-13T08:30:08.114Z,94.79
2023-05-13T08:32:36.348Z,93.33
2023-05-13T08:35:04.763Z,92.69
2023-05-13T08:37:32.982Z,93.31
2023-05-13T08:40:02.597Z,92.43
2023-05-13T08:42:34.387Z,93.06
2023-05-13T08:45:06.643Z,92.32
2023-05-13T08:47:45.479Z,92.17
2023-05-13T08:50:14.434Z,92.59
2023-05-13T08:52:44.637Z,93.14
2023-05-13T08:55:13.624Z,93.44
2023-05-13T08:57:41.795Z,91.86
2023-05-13T09:00:14.545Z,92.23
2023-05-13T09:02:43.114Z,91.59
2023-05-13T09:05:12.120Z,89.59
2023-05-13T09:07:41.231Z,89.86
2023-05-13T09:10:11.174Z,90.77
2023-05-13T09:12:48.300Z,90.99
2023-05-13T09:15:19.963Z,91.24
2023-05-13T09:17:52.390Z,92.97
2023-05-13T09:20:22.371Z,90.49
2023-05-13T09:22:52.468Z,90.44
2023-05-13T09:25:24.323Z,88.92
2023-05-13T09:27:57.641Z,88.72
2023-05-13T09:30:28.238Z,90.26
2023-05-13T09:33:09.440Z,91.07
2023-05-13T09:35:39.510Z,89.32
2023-05-13T09:38:15.969Z,89.44
2023-05-13T09:40:52.046Z,87.87
2023-05-13T09:43:22.975Z,88.08
2023-05-13T09:45:56.498Z,88.75
2023-05-13T09:48:28.062Z,88.27
2023-05-13T09:50:58.175Z,88.13
2023-05-13T09:53:27.083Z,87.83
2023-05-13T09:55:57.938Z,86.50
2023-05-13T09:58:29.184Z,86.02
2023-05-13T10:00:59.762Z,86.86
2023-05-13T10:03:32.919Z,87.11
2023-05-13T10:06:03.390Z,87.12
2023-05-13T10:08:32.135Z,87.56
2023-05-13T10:11:06.757Z,85.66
2023-05-13T10:13:37.222Z,86.29
2023-05-13T10:16:09.359Z,85.95
2023-05-13T10:18:37.904Z,85.43
2023-05-13T10:21:06.801Z,85.21
2023-05-13T10:23:36.392Z,86.38
2023-05-13T10:26:05.166Z,85.96
2023-05-13T10:28:34.981Z,86.87
2023-05-13T10:31:03.173Z,87.01
2023-05-13T10:33:33.032Z,86.27
2023-05-13T10:36:28.043Z,86.68
2023-05-13T10:39:34.332Z,86.25
2023-05-13T10:42:39.169Z,86.41
2023-05-13T10:45:09.005Z,87.02
2023-05-13T10:47:38.408Z,87.09
2023-05-13T10:50:24.063Z,86.88
2023-05-13T10:52:56.824Z,86.71
2023-05-13T10:55:25.073Z,86.82
2023-05-13T10:58:12.694Z,86.87
2023-05-13T11:00:43.117Z,87.84
2023-05-13T11:03:30.002Z,88.29
2023-05-13T11:06:17.173Z,88.15
2023-05-13T11:08:47.789Z,87.84
2023-05-13T11:11:24.721Z,87.98
2023-05-13T11:13:53.990Z,88.23
2023-05-13T11:16:23.795Z,88.52
2023-05-13T11:18:53.680Z,87.20
2023-05-13T11:21:33.247Z,87.48
2023-05-13T11:24:05.588Z,87.36
2023-05-13T11:26:46.598Z,86.55
2023-05-13T11:29:15.275Z,86.72
2023-05-13T11:31:47.352Z,86.73
2023-05-13T11:34:18.152Z,85.98
2023-05-13T11:36:49.889Z,85.97
2023-05-13T11:39:21.435Z,85.72
2023-05-13T11:41:51.681Z,85.63
2023-05-13T11:44:22.404Z,85.52
2023-05-13T11:46:52.616Z,85.02
2023-05-13T11:49:39.434Z,83.78
2023-05-13T11:52:12.288Z,84.62
2023-05-13T11:54:46.514Z,85.65
2023-05-13T11:57:25.621Z,83.43
2023-05-13T11:59:56.679Z,83.47
2023-05-13T12:02:26.939Z,83.53
2023-05-13T12:04:55.791Z,82.84
2023-05-13T12:07:27.722Z,83.18
2023-05-13T12:09:59.384Z,84.40
2023-05-13T12:12:29.578Z,83.90
2023-05-13T12:15:00.662Z,84.03
2023-05-13T12:17:29.337Z,82.92
2023-05-13T12:20:13.184Z,83.32
2023-05-13T12:22:56.744Z,81.76
2023-05-13T12:25:51.301Z,83.55
2023-05-13T12:28:21.677Z,83.65
2023-05-13T12:30:56.174Z,82.50
2023-05-13T12:33:27.029Z,81.55
2023-05-13T12:36:15.236Z,81.46
2023-05-13T12:39:00.172Z,79.92
2023-05-13T12:41:55.322Z,79.61
2023-05-13T12:44:23.739Z,79.97
2023-05-13T12:46:52.955Z,80.41
2023-05-13T12:49:22.287Z,81.78
2023-05-13T12:51:51.682Z,82.42
2023-05-13T12:54:21.664Z,83.26
2023-05-13T12:56:49.991Z,83.25
2023-05-13T12:59:19.158Z,83.15
2023-05-13T13:01:49.830Z,83.70
2023-05-13T13:04:19.093Z,83.56
2023-05-13T13:06:47.423Z,83.53
2023-05-13T13:09:15.624Z,82.22
2023-05-13T13:11:45.162Z,82.12
2023-05-13T13:14:13.408Z,82.36
2023-05-13T13:16:41.607Z,82.27
2023-05-13T13:19:09.828Z,82.26
2023-05-13T13:21:38.082Z,82.07
2023-05-13T13:24:06.642Z,82.39
2023-05-13T13:26:34.883Z,82.92
2023-05-13T13:29:04.447Z,82.48
2023-05-13T13:31:32.732Z,82.58
2023-05-13T13:34:04.282Z,82.76
2023-05-13T13:36:32.768Z,82.58
2023-05-13T13:39:00.996Z,82.66
2023-05-13T13:41:29.185Z,84.16
2023-05-13T13:43:57.337Z,82.04
2023-05-13T13:46:27.024Z,82.11
2023-05-13T13:48:55.354Z,82.16
2023-05-13T13:51:23.608Z,82.01
2023-05-13T13:53:51.828Z,82.50
2023-05-13T13:56:20.171Z,82.40
2023-05-13T13:58:48.415Z,82.32
2023-05-13T14:01:16.888Z,82.74
2023-05-13T14:03:56.137Z,83.21
2023-05-13T14:06:29.769Z,83.72
2023-05-13T14:08:58.010Z,83.38
2023-05-13T14:11:26.254Z,83.69
2023-05-13T14:13:54.463Z,83.98
2023-05-13T14:16:22.731Z,84.33
2023-05-13T14:18:52.484Z,83.51
2023-05-13T14:21:20.812Z,82.76
2023-05-13T14:23:49.128Z,80.92
2023-05-13T14:26:17.436Z,81.91
2023-05-13T14:28:46.354Z,81.95
2023-05-13T14:31:14.693Z,81.83
2023-05-13T14:33:45.595Z,81.04
2023-05-13T14:36:20.758Z,81.12
2023-05-13T14:38:49.031Z,82.11
2023-05-13T14:41:19.984Z,81.52
2023-05-13T14:43:48.436Z,82.64
2023-05-13T14:46:16.734Z,82.07
2023-05-13T14:48:45.121Z,82.00
2023-05-13T14:51:13.466Z,82.41
2023-05-13T14:53:43.833Z,82.31
2023-05-13T14:56:12.261Z,82.82
2023-05-13T14:58:41.263Z,81.54
2023-05-13T15:01:09.514Z,82.15
2023-05-13T15:03:38.282Z,81.92
2023-05-13T15:06:07.544Z,82.33
2023-05-13T15:08:36.942Z,82.52
2023-05-13T15:11:07.163Z,82.98
2023-05-13T15:13:36.914Z,81.63
2023-05-13T15:16:06.642Z,81.52
2023-05-13T15:18:35.326Z,80.61
2023-05-13T15:21:03.519Z,79.81
2023-05-13T15:23:31.724Z,80.13
2023-05-13T15:25:59.940Z,80.90
2023-05-13T15:28:29.628Z,80.87
2023-05-13T15:30:57.822Z,81.81
2023-05-13T15:33:27.074Z,79.98
2023-05-13T15:35:55.222Z,79.75
2023-05-13T15:38:23.604Z,79.53
2023-05-13T15:40:51.967Z,79.45
2023-05-13T15:43:20.427Z,79.30
2023-05-13T15:45:50.937Z,79.57
2023-05-13T15:48:19.223Z,79.04
2023-05-13T15:50:48.560Z,79.98
2023-05-13T15:53:16.847Z,80.32
2023-05-13T15:55:45.207Z,79.88
2023-05-13T15:58:13.440Z,80.33
2023-05-13T16:00:42.695Z,81.62
2023-05-13T16:03:12.563Z,81.63
2023-05-13T16:05:41.042Z,80.64
2023-05-13T16:08:09.244Z,82.22
2023-05-13T16:10:39.248Z,80.00
2023-05-13T16:13:07.498Z,79.16
2023-05-13T16:15:35.713Z,80.16
2023-05-13T16:18:04.013Z,81.12
2023-05-13T16:20:33.626Z,80.62
2023-05-13T16:23:01.885Z,80.25
2023-05-13T16:25:30.151Z,80.56
2023-05-13T16:27:58.376Z,79.75
2023-05-13T16:30:26.613Z,79.93
2023-05-13T16:32:54.858Z,80.95
2023-05-13T16:35:23.647Z,81.22
2023-05-13T16:37:53.200Z,81.73
2023-05-13T16:40:21.677Z,81.38
2023-05-13T16:42:49.995Z,81.63
2023-05-13T16:45:18.391Z,81.33
2023-05-13T16:47:46.589Z,80.84
2023-05-13T16:50:15.962Z,82.59
2023-05-13T16:52:44.134Z,83.65
2023-05-13T16:55:14.651Z,83.19
2023-05-13T16:57:42.840Z,82.73
2023-05-13T17:00:14.292Z,81.23
2023-05-13T17:02:42.786Z,80.73
2023-05-13T17:05:11.182Z,78.46
2023-05-13T17:07:39.625Z,79.02
2023-05-13T17:10:09.435Z,77.67
2023-05-13T17:12:38.967Z,76.58
2023-05-13T17:15:08.714Z,76.33
2023-05-13T17:17:36.938Z,75.67
2023-05-13T17:20:06.405Z,74.33
2023-05-13T17:22:34.637Z,73.43
2023-05-13T17:25:02.832Z,73.52
2023-05-13T17:27:31.021Z,73.64
2023-05-13T17:30:00.694Z,74.04
2023-05-13T17:32:28.958Z,73.43
2023-05-13T17:34:57.529Z,72.87
2023-05-13T17:37:25.823Z,73.91
2023-05-13T17:39:54.786Z,73.57
2023-05-13T17:42:22.995Z,74.53
2023-05-13T17:44:51.298Z,75.20
2023-05-13T17:47:21.732Z,77.09
2023-05-13T17:49:49.954Z,77.35
2023-05-13T17:52:18.136Z,77.42
2023-05-13T17:54:46.311Z,78.64
2023-05-13T17:57:15.724Z,78.69
2023-05-13T17:59:44.404Z,79.91
2023-05-13T18:02:13.025Z,80.42
2023-05-13T18:04:44.506Z,80.52
2023-05-13T18:07:23.105Z,80.99
2023-05-13T18:09:51.548Z,82.15
2023-05-13T18:12:19.736Z,82.64
2023-05-13T18:14:47.941Z,82.64
2023-05-13T18:17:16.281Z,83.22
2023-05-13T18:19:45.848Z,83.59
2023-05-13T18:22:14.077Z,84.12
2023-05-13T18:24:42.450Z,84.35
2023-05-13T18:27:11.358Z,83.80
2023-05-13T18:29:39.632Z,84.55
2023-05-13T18:32:08.484Z,84.60
2023-05-13T18:34:38.003Z,84.67
2023-05-13T18:37:08.148Z,85.49
2023-05-13T18:39:36.432Z,85.41
2023-05-13T18:42:04.791Z,86.24
2023-05-13T18:44:33.115Z,85.93
2023-05-13T18:47:01.328Z,85.90
2023-05-13T18:49:29.556Z,86.17
2023-05-13T18:51:57.725Z,86.39
2023-05-13T18:54:29.144Z,86.39
2023-05-13T18:56:57.429Z,86.73
2023-05-13T18:59:25.793Z,87.74
2023-05-13T19:01:54.169Z,87.58
2023-05-13T19:04:22.556Z,87.69
2023-05-13T19:06:51.220Z,87.97
2023-05-13T19:09:19.503Z,87.74
2023-05-13T19:11:49.107Z,87.75
2023-05-13T19:14:17.326Z,88.53
2023-05-13T19:16:46.769Z,88.43
2023-05-13T19:19:15.191Z,87.91
2023-05-13T19:21:43.488Z,88.32
2023-05-13T19:24:11.683Z,88.51
2023-05-13T19:26:40.472Z,88.01
2023-05-13T19:29:10.110Z,88.06
2023-05-13T19:31:38.407Z,87.65
2023-05-13T19:34:07.663Z,87.71
2023-05-13T19:36:35.982Z,87.06
2023-05-13T19:39:04.824Z,87.09
2023-05-13T19:41:34.420Z,86.83
2023-05-13T19:44:02.666Z,87.01
2023-05-13T19:46:32.823Z,87.04
2023-05-13T19:49:01.077Z,87.35
2023-05-13T19:51:29.263Z,86.96
2023-05-13T19:53:57.512Z,87.43
2023-05-13T19:56:25.953Z,87.09
2023-05-13T19:58:54.091Z,87.45
2023-05-13T20:01:26.608Z,87.39
2023-05-13T20:03:56.912Z,87.70
2023-05-13T20:06:25.263Z,87.85
2023-05-13T20:08:53.441Z,87.82
2023-05-13T20:11:21.689Z,88.28
2023-05-13T20:13:50.038Z,88.24
2023-05-13T20:16:22.102Z,88.89
2023-05-13T20:18:50.445Z,89.17
2023-05-13T20:21:20.014Z,88.92
2023-05-13T20:23:48.246Z,89.12
2023-05-13T20:26:16.442Z,89.19
2023-05-13T20:28:45.731Z,89.35
2023-05-13T20:31:14.273Z,89.05
2023-05-13T20:33:42.461Z,89.50
2023-05-13T20:36:10.675Z,89.45
2023-05-13T20:38:40.302Z,89.27
2023-05-13T20:41:08.470Z,89.15
2023-05-13T20:43:37.033Z,89.05
2023-05-13T20:46:06.951Z,88.90
2023-05-13T20:48:35.422Z,88.68
2023-05-13T20:51:05.299Z,89.01
2023-05-13T20:53:34.195Z,88.96
2023-05-13T20:56:04.918Z,88.57
2023-05-13T20:58:33.285Z,88.84
2023-05-13T21:01:01.563Z,88.63
2023-05-13T21:03:29.803Z,89.44
2023-05-13T21:05:58.029Z,88.54
2023-05-13T21:08:26.175Z,89.07
2023-05-13T21:10:56.900Z,88.97
2023-05-13T21:13:26.896Z,89.74
2023-05-13T21:15:55.814Z,89.90
2023-05-13T21:18:24.476Z,89.87
2023-05-13T21:20:52.889Z,89.44
2023-05-13T21:23:21.147Z,90.13
2023-05-13T21:25:49.399Z,89.71
2023-05-13T21:28:18.292Z,90.35
2023-05-13T21:30:47.926Z,90.44
2023-05-13T21:33:16.828Z,90.92
2023-05-13T21:35:45.011Z,90.83
2023-05-13T21:38:13.208Z,90.48
2023-05-13T21:40:41.536Z,90.89
2023-05-13T21:43:09.756Z,90.86
2023-05-13T21:45:38.035Z,90.88
2023-05-13T21:48:08.221Z,90.80
2023-05-13T21:50:36.801Z,91.37
2023-05-13T21:53:05.746Z,91.19
2023-05-13T21:55:35.106Z,91.71
2023-05-13T21:58:03.724Z,92.68
2023-05-13T22:00:32.195Z,92.65
2023-05-13T22:03:01.594Z,92.76
2023-05-13T22:05:31.278Z,92.61
2023-05-13T22:08:01.755Z,92.55
2023-05-13T22:10:31.997Z,92.81
2023-05-13T22:13:00.146Z,93.45
2023-05-13T22:15:28.331Z,94.05
2023-05-13T22:17:56.677Z,93.79
2023-05-13T22:20:25.937Z,93.79
2023-05-13T22:22:56.052Z,93.67
2023-05-13T22:25:24.192Z,94.23
2023-05-13T22:27:52.724Z,94.11
2023-05-13T22:30:21.436Z,95.07
2023-05-13T22:32:50.484Z,95.06
2023-05-13T22:35:18.917Z,95.63
2023-05-13T22:37:47.194Z,94.61
2023-05-13T22:40:17.083Z,94.17
2023-05-13T22:42:45.317Z,95.39
2023-05-13T22:45:13.963Z,94.81
2023-05-13T22:47:42.221Z,94.59
2023-05-13T22:50:12.285Z,95.02
2023-05-13T22:52:40.572Z,95.54
2023-05-13T22:55:10.285Z,94.83
2023-05-13T22:57:39.847Z,94.93
2023-05-13T23:00:10.332Z,95.53
2023-05-13T23:02:38.523Z,94.51
2023-05-13T23:05:08.337Z,94.01
2023-05-13T23:07:36.697Z,94.06
2023-05-13T23:10:05.790Z,94.20
2023-05-13T23:12:34.355Z,95.08
2023-05-13T23:15:04.108Z,94.31
2023-05-13T23:17:32.730Z,94.65
2023-05-13T23:20:01.300Z,94.74
2023-05-13T23:22:29.516Z,94.45
2023-05-13T23:24:57.737Z,93.91
2023-05-13T23:27:26.150Z,94.04
2023-05-13T23:29:54.325Z,93.76
2023-05-13T23:32:23.961Z,93.60
2023-05-13T23:34:52.422Z,93.41
2023-05-13T23:37:21.876Z,93.91
2023-05-13T23:39:50.163Z,94.96
2023-05-13T23:42:18.516Z,93.66
2023-05-13T23:44:46.757Z,93.94
2023-05-13T23:47:14.997Z,93.86
2023-05-13T23:49:44.559Z,94.74
2023-05-13T23:52:12.921Z,94.57
2023-05-13T23:54:41.144Z,95.58
2023-05-13T23:57:09.350Z,95.04
2023-05-13T23:59:37.534Z,94.73
